KGSB/GSB METAR and TAF weather

Enter ICAO airport designator
Station Type Date Time Source
KGSB METAR 2020/09/18 08:31 UTC NOAA

KGSB 180831Z 35006KT 10SM OVC005 21/21 A2972 RMK AO2A RAE31 SLP066 $


Station Type Date Time Source
KGSB Decoded METAR 2020/09/18 08:31 UTC NOAA

Seymour-Johnson Air Force Base, NC, United States (KGSB) 35-20N 077-58W
Sep 18, 2020 - 04:31 AM EDT / 2020.09.18 0831 UTC
Wind: from the N (350 degrees) at 7 MPH (6 KT):0
Visibility: 10 mile(s):0
Sky conditions: overcast
Temperature: 69 F (21 C)
Dew Point: 69 F (21 C)
Relative Humidity: 100%
Pressure (altimeter): 29.72 in. Hg (1006 hPa)
ob: KGSB 180831Z 35006KT 10SM OVC005 21/21 A2972 RMK AO2A RAE31 SLP066
cycle: 8

Station Type Date Time Source
KGSB TAF 2020/09/18 06:37 UTC NOAA

TAF
AMD KGSB 180627Z 1806/1910 02008KT 8000 -SHRA BKN007 QNH2965INS
BECMG 1814/1815 04012G20KT 8000 -SHRA BKN006 QNH2984INS
BECMG 1819/1820 03012G25KT 9999 NSW BKN015 QNH2984INS
BECMG 1822/1823 02010KT 9999 BKN025 BKN100 QNH2989INS TX23/1818Z TN21/1811Z

Example: see airport list